<?xml version="1.0" encoding="UTF-8" standalone="no" ?>
<gpx xmlns="http://www.topografix.com/GPX/1/1" xmlns:xsi="http://www.w3.org/2001/XMLSchema-instance" xsi:schemaLocation="http://www.topografix.com/GPX/1/1 http://www.topografix.com/GPX/1/1/gpx.xsd" version="1.1" creator="VisuGPX - https://www.visugpx.com">
  <metadata>
    <name>Foret de Buzet MN 13,5 km</name>
  </metadata>
  <trk>
    <name><![CDATA[10692403-Buzet MN 13,5 km]]></name>
    <trkseg>
      <trkpt lat="43.76289" lon="1.58141">
        <ele>169</ele>
        <time>2020-06-14T15:37:23Z</time>
      </trkpt>
      <trkpt lat="43.76317" lon="1.58166">
        <ele>168</ele>
        <time>2020-06-14T15:37:50Z</time>
      </trkpt>
      <trkpt lat="43.7634" lon="1.58206">
        <ele>168</ele>
        <time>2020-06-14T15:38:19Z</time>
      </trkpt>
      <trkpt lat="43.76351" lon="1.58241">
        <ele>169</ele>
        <time>2020-06-14T15:38:41Z</time>
      </trkpt>
      <trkpt lat="43.76419" lon="1.58334">
        <ele>163</ele>
        <time>2020-06-14T15:39:58Z</time>
      </trkpt>
      <trkpt lat="43.76443" lon="1.58391">
        <ele>163</ele>
        <time>2020-06-14T15:40:36Z</time>
      </trkpt>
      <trkpt lat="43.7646" lon="1.58474">
        <ele>161</ele>
        <time>2020-06-14T15:41:26Z</time>
      </trkpt>
      <trkpt lat="43.76496" lon="1.58611">
        <ele>156</ele>
        <time>2020-06-14T15:42:50Z</time>
      </trkpt>
      <trkpt lat="43.76511" lon="1.58637">
        <ele>155</ele>
        <time>2020-06-14T15:43:09Z</time>
      </trkpt>
      <trkpt lat="43.76519" lon="1.58655">
        <ele>155</ele>
        <time>2020-06-14T15:43:22Z</time>
      </trkpt>
      <trkpt lat="43.76518" lon="1.58658">
        <ele>155</ele>
        <time>2020-06-14T15:43:24Z</time>
      </trkpt>
      <trkpt lat="43.76529" lon="1.58667">
        <ele>154</ele>
        <time>2020-06-14T15:43:34Z</time>
      </trkpt>
      <trkpt lat="43.76537" lon="1.5868">
        <ele>154</ele>
        <time>2020-06-14T15:43:44Z</time>
      </trkpt>
      <trkpt lat="43.76563" lon="1.58708">
        <ele>152</ele>
        <time>2020-06-14T15:44:10Z</time>
      </trkpt>
      <trkpt lat="43.76582" lon="1.58734">
        <ele>150</ele>
        <time>2020-06-14T15:44:31Z</time>
      </trkpt>
      <trkpt lat="43.76626" lon="1.58786">
        <ele>150</ele>
        <time>2020-06-14T15:45:18Z</time>
      </trkpt>
      <trkpt lat="43.76648" lon="1.58818">
        <ele>148</ele>
        <time>2020-06-14T15:45:43Z</time>
      </trkpt>
      <trkpt lat="43.76661" lon="1.58826">
        <ele>146</ele>
        <time>2020-06-14T15:45:55Z</time>
      </trkpt>
      <trkpt lat="43.76674" lon="1.58841">
        <ele>145</ele>
        <time>2020-06-14T15:46:08Z</time>
      </trkpt>
      <trkpt lat="43.76702" lon="1.58883">
        <ele>146</ele>
        <time>2020-06-14T15:46:41Z</time>
      </trkpt>
      <trkpt lat="43.76714" lon="1.58907">
        <ele>145</ele>
        <time>2020-06-14T15:46:58Z</time>
      </trkpt>
      <trkpt lat="43.76738" lon="1.58941">
        <ele>142</ele>
        <time>2020-06-14T15:47:26Z</time>
      </trkpt>
      <trkpt lat="43.76765" lon="1.5899">
        <ele>139</ele>
        <time>2020-06-14T15:48:01Z</time>
      </trkpt>
      <trkpt lat="43.76769" lon="1.59006">
        <ele>138</ele>
        <time>2020-06-14T15:48:11Z</time>
      </trkpt>
      <trkpt lat="43.76782" lon="1.58974">
        <ele>140</ele>
        <time>2020-06-14T15:48:32Z</time>
      </trkpt>
      <trkpt lat="43.76787" lon="1.58953">
        <ele>141</ele>
        <time>2020-06-14T15:48:45Z</time>
      </trkpt>
      <trkpt lat="43.76779" lon="1.58933">
        <ele>142</ele>
        <time>2020-06-14T15:48:58Z</time>
      </trkpt>
      <trkpt lat="43.76752" lon="1.58897">
        <ele>144</ele>
        <time>2020-06-14T15:49:28Z</time>
      </trkpt>
      <trkpt lat="43.76748" lon="1.58876">
        <ele>145</ele>
        <time>2020-06-14T15:49:41Z</time>
      </trkpt>
      <trkpt lat="43.76753" lon="1.5883">
        <ele>149</ele>
        <time>2020-06-14T15:50:08Z</time>
      </trkpt>
      <trkpt lat="43.76753" lon="1.58798">
        <ele>151</ele>
        <time>2020-06-14T15:50:26Z</time>
      </trkpt>
      <trkpt lat="43.7677" lon="1.58749">
        <ele>157</ele>
        <time>2020-06-14T15:50:58Z</time>
      </trkpt>
      <trkpt lat="43.76773" lon="1.5872">
        <ele>159</ele>
        <time>2020-06-14T15:51:15Z</time>
      </trkpt>
      <trkpt lat="43.7677" lon="1.58695">
        <ele>160</ele>
        <time>2020-06-14T15:51:29Z</time>
      </trkpt>
      <trkpt lat="43.76772" lon="1.58666">
        <ele>161</ele>
        <time>2020-06-14T15:51:46Z</time>
      </trkpt>
      <trkpt lat="43.76776" lon="1.58647">
        <ele>162</ele>
        <time>2020-06-14T15:51:58Z</time>
      </trkpt>
      <trkpt lat="43.76776" lon="1.58603">
        <ele>164</ele>
        <time>2020-06-14T15:52:23Z</time>
      </trkpt>
      <trkpt lat="43.76773" lon="1.58575">
        <ele>165</ele>
        <time>2020-06-14T15:52:39Z</time>
      </trkpt>
      <trkpt lat="43.76758" lon="1.5853">
        <ele>165</ele>
        <time>2020-06-14T15:53:08Z</time>
      </trkpt>
      <trkpt lat="43.76742" lon="1.58492">
        <ele>165</ele>
        <time>2020-06-14T15:53:33Z</time>
      </trkpt>
      <trkpt lat="43.76675" lon="1.58379">
        <ele>163</ele>
        <time>2020-06-14T15:54:58Z</time>
      </trkpt>
      <trkpt lat="43.76646" lon="1.58308">
        <ele>163</ele>
        <time>2020-06-14T15:55:45Z</time>
      </trkpt>
      <trkpt lat="43.76581" lon="1.582">
        <ele>167</ele>
        <time>2020-06-14T15:57:06Z</time>
      </trkpt>
      <trkpt lat="43.76556" lon="1.58106">
        <ele>170</ele>
        <time>2020-06-14T15:58:04Z</time>
      </trkpt>
      <trkpt lat="43.76553" lon="1.58067">
        <ele>170</ele>
        <time>2020-06-14T15:58:27Z</time>
      </trkpt>
      <trkpt lat="43.76581" lon="1.58094">
        <ele>170</ele>
        <time>2020-06-14T15:58:54Z</time>
      </trkpt>
      <trkpt lat="43.76645" lon="1.58113">
        <ele>168</ele>
        <time>2020-06-14T15:59:47Z</time>
      </trkpt>
      <trkpt lat="43.76683" lon="1.58114">
        <ele>166</ele>
        <time>2020-06-14T16:00:17Z</time>
      </trkpt>
      <trkpt lat="43.76752" lon="1.58145">
        <ele>161</ele>
        <time>2020-06-14T16:01:15Z</time>
      </trkpt>
      <trkpt lat="43.76791" lon="1.58175">
        <ele>161</ele>
        <time>2020-06-14T16:01:51Z</time>
      </trkpt>
      <trkpt lat="43.76818" lon="1.58206">
        <ele>162</ele>
        <time>2020-06-14T16:02:19Z</time>
      </trkpt>
      <trkpt lat="43.76888" lon="1.58228">
        <ele>163</ele>
        <time>2020-06-14T16:03:17Z</time>
      </trkpt>
      <trkpt lat="43.76913" lon="1.58247">
        <ele>163</ele>
        <time>2020-06-14T16:03:39Z</time>
      </trkpt>
      <trkpt lat="43.7699" lon="1.5833">
        <ele>165</ele>
        <time>2020-06-14T16:04:58Z</time>
      </trkpt>
      <trkpt lat="43.77031" lon="1.58363">
        <ele>164</ele>
        <time>2020-06-14T16:05:36Z</time>
      </trkpt>
      <trkpt lat="43.7707" lon="1.58407">
        <ele>164</ele>
        <time>2020-06-14T16:06:16Z</time>
      </trkpt>
      <trkpt lat="43.7709" lon="1.5841">
        <ele>164</ele>
        <time>2020-06-14T16:06:32Z</time>
      </trkpt>
      <trkpt lat="43.77128" lon="1.58445">
        <ele>165</ele>
        <time>2020-06-14T16:07:08Z</time>
      </trkpt>
      <trkpt lat="43.7717" lon="1.58466">
        <ele>164</ele>
        <time>2020-06-14T16:07:44Z</time>
      </trkpt>
      <trkpt lat="43.77217" lon="1.58502">
        <ele>162</ele>
        <time>2020-06-14T16:08:27Z</time>
      </trkpt>
      <trkpt lat="43.77202" lon="1.58538">
        <ele>160</ele>
        <time>2020-06-14T16:08:51Z</time>
      </trkpt>
      <trkpt lat="43.77196" lon="1.58575">
        <ele>158</ele>
        <time>2020-06-14T16:09:13Z</time>
      </trkpt>
      <trkpt lat="43.77189" lon="1.58598">
        <ele>157</ele>
        <time>2020-06-14T16:09:28Z</time>
      </trkpt>
      <trkpt lat="43.77173" lon="1.58627">
        <ele>155</ele>
        <time>2020-06-14T16:09:49Z</time>
      </trkpt>
      <trkpt lat="43.77163" lon="1.5866">
        <ele>151</ele>
        <time>2020-06-14T16:10:09Z</time>
      </trkpt>
      <trkpt lat="43.77144" lon="1.58694">
        <ele>149</ele>
        <time>2020-06-14T16:10:34Z</time>
      </trkpt>
      <trkpt lat="43.77133" lon="1.58719">
        <ele>148</ele>
        <time>2020-06-14T16:10:51Z</time>
      </trkpt>
      <trkpt lat="43.77129" lon="1.58735">
        <ele>146</ele>
        <time>2020-06-14T16:11:01Z</time>
      </trkpt>
      <trkpt lat="43.77131" lon="1.58758">
        <ele>143</ele>
        <time>2020-06-14T16:11:14Z</time>
      </trkpt>
      <trkpt lat="43.77124" lon="1.58779">
        <ele>142</ele>
        <time>2020-06-14T16:11:28Z</time>
      </trkpt>
      <trkpt lat="43.77101" lon="1.5883">
        <ele>140</ele>
        <time>2020-06-14T16:12:03Z</time>
      </trkpt>
      <trkpt lat="43.77095" lon="1.58863">
        <ele>138</ele>
        <time>2020-06-14T16:12:22Z</time>
      </trkpt>
      <trkpt lat="43.77083" lon="1.58903">
        <ele>137</ele>
        <time>2020-06-14T16:12:47Z</time>
      </trkpt>
      <trkpt lat="43.77081" lon="1.58904">
        <ele>137</ele>
        <time>2020-06-14T16:12:49Z</time>
      </trkpt>
      <trkpt lat="43.77083" lon="1.58904">
        <ele>137</ele>
        <time>2020-06-14T16:12:51Z</time>
      </trkpt>
      <trkpt lat="43.77095" lon="1.58897">
        <ele>136</ele>
        <time>2020-06-14T16:13:01Z</time>
      </trkpt>
      <trkpt lat="43.77106" lon="1.58882">
        <ele>136</ele>
        <time>2020-06-14T16:13:13Z</time>
      </trkpt>
      <trkpt lat="43.77115" lon="1.58882">
        <ele>135</ele>
        <time>2020-06-14T16:13:21Z</time>
      </trkpt>
      <trkpt lat="43.77148" lon="1.58854">
        <ele>134</ele>
        <time>2020-06-14T16:13:52Z</time>
      </trkpt>
      <trkpt lat="43.77181" lon="1.58833">
        <ele>132</ele>
        <time>2020-06-14T16:14:21Z</time>
      </trkpt>
      <trkpt lat="43.77186" lon="1.58825">
        <ele>132</ele>
        <time>2020-06-14T16:14:27Z</time>
      </trkpt>
      <trkpt lat="43.77215" lon="1.58799">
        <ele>131</ele>
        <time>2020-06-14T16:14:54Z</time>
      </trkpt>
      <trkpt lat="43.77231" lon="1.58779">
        <ele>132</ele>
        <time>2020-06-14T16:15:12Z</time>
      </trkpt>
      <trkpt lat="43.77357" lon="1.58678">
        <ele>129</ele>
        <time>2020-06-14T16:17:08Z</time>
      </trkpt>
      <trkpt lat="43.7737" lon="1.58661">
        <ele>130</ele>
        <time>2020-06-14T16:17:23Z</time>
      </trkpt>
      <trkpt lat="43.77378" lon="1.58643">
        <ele>131</ele>
        <time>2020-06-14T16:17:35Z</time>
      </trkpt>
      <trkpt lat="43.77395" lon="1.58617">
        <ele>132</ele>
        <time>2020-06-14T16:17:55Z</time>
      </trkpt>
      <trkpt lat="43.7742" lon="1.58609">
        <ele>131</ele>
        <time>2020-06-14T16:18:16Z</time>
      </trkpt>
      <trkpt lat="43.77444" lon="1.58581">
        <ele>132</ele>
        <time>2020-06-14T16:18:41Z</time>
      </trkpt>
      <trkpt lat="43.77455" lon="1.58573">
        <ele>131</ele>
        <time>2020-06-14T16:18:51Z</time>
      </trkpt>
      <trkpt lat="43.77493" lon="1.58534">
        <ele>131</ele>
        <time>2020-06-14T16:19:28Z</time>
      </trkpt>
      <trkpt lat="43.77511" lon="1.58518">
        <ele>131</ele>
        <time>2020-06-14T16:19:46Z</time>
      </trkpt>
      <trkpt lat="43.7755" lon="1.58492">
        <ele>131</ele>
        <time>2020-06-14T16:20:20Z</time>
      </trkpt>
      <trkpt lat="43.77584" lon="1.58451">
        <ele>130</ele>
        <time>2020-06-14T16:20:56Z</time>
      </trkpt>
      <trkpt lat="43.77611" lon="1.58435">
        <ele>129</ele>
        <time>2020-06-14T16:21:20Z</time>
      </trkpt>
      <trkpt lat="43.77626" lon="1.58423">
        <ele>129</ele>
        <time>2020-06-14T16:21:34Z</time>
      </trkpt>
      <trkpt lat="43.77645" lon="1.58404">
        <ele>129</ele>
        <time>2020-06-14T16:21:53Z</time>
      </trkpt>
      <trkpt lat="43.7767" lon="1.58362">
        <ele>129</ele>
        <time>2020-06-14T16:22:24Z</time>
      </trkpt>
      <trkpt lat="43.77736" lon="1.58275">
        <ele>130</ele>
        <time>2020-06-14T16:23:37Z</time>
      </trkpt>
      <trkpt lat="43.7774" lon="1.58281">
        <ele>130</ele>
        <time>2020-06-14T16:23:42Z</time>
      </trkpt>
      <trkpt lat="43.7775" lon="1.58287">
        <ele>130</ele>
        <time>2020-06-14T16:23:50Z</time>
      </trkpt>
      <trkpt lat="43.77759" lon="1.58288">
        <ele>129</ele>
        <time>2020-06-14T16:23:58Z</time>
      </trkpt>
      <trkpt lat="43.77787" lon="1.58284">
        <ele>129</ele>
        <time>2020-06-14T16:24:20Z</time>
      </trkpt>
      <trkpt lat="43.77823" lon="1.58294">
        <ele>129</ele>
        <time>2020-06-14T16:24:50Z</time>
      </trkpt>
      <trkpt lat="43.77843" lon="1.58292">
        <ele>129</ele>
        <time>2020-06-14T16:25:06Z</time>
      </trkpt>
      <trkpt lat="43.77883" lon="1.58268">
        <ele>128</ele>
        <time>2020-06-14T16:25:41Z</time>
      </trkpt>
      <trkpt lat="43.77911" lon="1.5827">
        <ele>128</ele>
        <time>2020-06-14T16:26:03Z</time>
      </trkpt>
      <trkpt lat="43.77922" lon="1.58265">
        <ele>128</ele>
        <time>2020-06-14T16:26:12Z</time>
      </trkpt>
      <trkpt lat="43.77928" lon="1.58253">
        <ele>128</ele>
        <time>2020-06-14T16:26:21Z</time>
      </trkpt>
      <trkpt lat="43.77931" lon="1.58229">
        <ele>128</ele>
        <time>2020-06-14T16:26:35Z</time>
      </trkpt>
      <trkpt lat="43.77952" lon="1.58192">
        <ele>128</ele>
        <time>2020-06-14T16:27:02Z</time>
      </trkpt>
      <trkpt lat="43.77961" lon="1.58165">
        <ele>128</ele>
        <time>2020-06-14T16:27:19Z</time>
      </trkpt>
      <trkpt lat="43.77975" lon="1.58156">
        <ele>128</ele>
        <time>2020-06-14T16:27:32Z</time>
      </trkpt>
      <trkpt lat="43.78034" lon="1.58138">
        <ele>128</ele>
        <time>2020-06-14T16:28:20Z</time>
      </trkpt>
      <trkpt lat="43.78099" lon="1.58128">
        <ele>128</ele>
        <time>2020-06-14T16:29:12Z</time>
      </trkpt>
      <trkpt lat="43.78145" lon="1.58138">
        <ele>127</ele>
        <time>2020-06-14T16:29:50Z</time>
      </trkpt>
      <trkpt lat="43.78154" lon="1.58133">
        <ele>127</ele>
        <time>2020-06-14T16:29:57Z</time>
      </trkpt>
      <trkpt lat="43.78169" lon="1.58117">
        <ele>127</ele>
        <time>2020-06-14T16:30:12Z</time>
      </trkpt>
      <trkpt lat="43.78181" lon="1.58113">
        <ele>127</ele>
        <time>2020-06-14T16:30:22Z</time>
      </trkpt>
      <trkpt lat="43.78188" lon="1.58108">
        <ele>127</ele>
        <time>2020-06-14T16:30:29Z</time>
      </trkpt>
      <trkpt lat="43.78231" lon="1.58096">
        <ele>127</ele>
        <time>2020-06-14T16:31:04Z</time>
      </trkpt>
      <trkpt lat="43.78237" lon="1.58091">
        <ele>127</ele>
        <time>2020-06-14T16:31:09Z</time>
      </trkpt>
      <trkpt lat="43.78242" lon="1.58099">
        <ele>127</ele>
        <time>2020-06-14T16:31:15Z</time>
      </trkpt>
      <trkpt lat="43.78256" lon="1.58146">
        <ele>125</ele>
        <time>2020-06-14T16:31:45Z</time>
      </trkpt>
      <trkpt lat="43.78415" lon="1.58062">
        <ele>123</ele>
        <time>2020-06-14T16:34:01Z</time>
      </trkpt>
      <trkpt lat="43.7852" lon="1.57945">
        <ele>126</ele>
        <time>2020-06-14T16:35:49Z</time>
      </trkpt>
      <trkpt lat="43.78617" lon="1.57804">
        <ele>123</ele>
        <time>2020-06-14T16:37:42Z</time>
      </trkpt>
      <trkpt lat="43.78668" lon="1.57623">
        <ele>124</ele>
        <time>2020-06-14T16:39:34Z</time>
      </trkpt>
      <trkpt lat="43.7868" lon="1.57564">
        <ele>124</ele>
        <time>2020-06-14T16:40:09Z</time>
      </trkpt>
      <trkpt lat="43.78706" lon="1.57465">
        <ele>123</ele>
        <time>2020-06-14T16:41:10Z</time>
      </trkpt>
      <trkpt lat="43.78625" lon="1.57421">
        <ele>128</ele>
        <time>2020-06-14T16:42:20Z</time>
      </trkpt>
      <trkpt lat="43.78598" lon="1.57418">
        <ele>129</ele>
        <time>2020-06-14T16:42:42Z</time>
      </trkpt>
      <trkpt lat="43.78543" lon="1.57432">
        <ele>130</ele>
        <time>2020-06-14T16:43:26Z</time>
      </trkpt>
      <trkpt lat="43.78461" lon="1.57432">
        <ele>129</ele>
        <time>2020-06-14T16:44:32Z</time>
      </trkpt>
      <trkpt lat="43.78438" lon="1.57459">
        <ele>129</ele>
        <time>2020-06-14T16:44:56Z</time>
      </trkpt>
      <trkpt lat="43.78406" lon="1.57465">
        <ele>129</ele>
        <time>2020-06-14T16:45:22Z</time>
      </trkpt>
      <trkpt lat="43.78389" lon="1.57493">
        <ele>129</ele>
        <time>2020-06-14T16:45:43Z</time>
      </trkpt>
      <trkpt lat="43.78369" lon="1.57508">
        <ele>128</ele>
        <time>2020-06-14T16:46:01Z</time>
      </trkpt>
      <trkpt lat="43.78356" lon="1.57512">
        <ele>128</ele>
        <time>2020-06-14T16:46:12Z</time>
      </trkpt>
      <trkpt lat="43.78312" lon="1.57505">
        <ele>128</ele>
        <time>2020-06-14T16:46:47Z</time>
      </trkpt>
      <trkpt lat="43.78264" lon="1.57547">
        <ele>127</ele>
        <time>2020-06-14T16:47:33Z</time>
      </trkpt>
      <trkpt lat="43.7824" lon="1.57547">
        <ele>128</ele>
        <time>2020-06-14T16:47:52Z</time>
      </trkpt>
      <trkpt lat="43.78199" lon="1.57524">
        <ele>129</ele>
        <time>2020-06-14T16:48:28Z</time>
      </trkpt>
      <trkpt lat="43.78181" lon="1.57508">
        <ele>130</ele>
        <time>2020-06-14T16:48:45Z</time>
      </trkpt>
      <trkpt lat="43.78127" lon="1.57477">
        <ele>132</ele>
        <time>2020-06-14T16:49:32Z</time>
      </trkpt>
      <trkpt lat="43.78103" lon="1.57505">
        <ele>133</ele>
        <time>2020-06-14T16:49:57Z</time>
      </trkpt>
      <trkpt lat="43.78116" lon="1.57606">
        <ele>132</ele>
        <time>2020-06-14T16:50:56Z</time>
      </trkpt>
      <trkpt lat="43.78072" lon="1.57708">
        <ele>132</ele>
        <time>2020-06-14T16:52:05Z</time>
      </trkpt>
      <trkpt lat="43.7805" lon="1.5766">
        <ele>135</ele>
        <time>2020-06-14T16:52:38Z</time>
      </trkpt>
      <trkpt lat="43.77989" lon="1.57556">
        <ele>138</ele>
        <time>2020-06-14T16:53:55Z</time>
      </trkpt>
      <trkpt lat="43.77941" lon="1.57537">
        <ele>141</ele>
        <time>2020-06-14T16:54:35Z</time>
      </trkpt>
      <trkpt lat="43.77911" lon="1.57556">
        <ele>142</ele>
        <time>2020-06-14T16:55:01Z</time>
      </trkpt>
      <trkpt lat="43.77827" lon="1.57635">
        <ele>148</ele>
        <time>2020-06-14T16:56:23Z</time>
      </trkpt>
      <trkpt lat="43.77784" lon="1.57649">
        <ele>149</ele>
        <time>2020-06-14T16:56:58Z</time>
      </trkpt>
      <trkpt lat="43.77732" lon="1.57656">
        <ele>149</ele>
        <time>2020-06-14T16:57:40Z</time>
      </trkpt>
      <trkpt lat="43.77616" lon="1.5765">
        <ele>149</ele>
        <time>2020-06-14T16:59:13Z</time>
      </trkpt>
      <trkpt lat="43.77542" lon="1.57688">
        <ele>151</ele>
        <time>2020-06-14T17:00:16Z</time>
      </trkpt>
      <trkpt lat="43.77511" lon="1.57631">
        <ele>154</ele>
        <time>2020-06-14T17:00:57Z</time>
      </trkpt>
      <trkpt lat="43.77587" lon="1.57557">
        <ele>153</ele>
        <time>2020-06-14T17:02:12Z</time>
      </trkpt>
      <trkpt lat="43.77674" lon="1.57487">
        <ele>156</ele>
        <time>2020-06-14T17:03:32Z</time>
      </trkpt>
      <trkpt lat="43.77718" lon="1.57434">
        <ele>159</ele>
        <time>2020-06-14T17:04:19Z</time>
      </trkpt>
      <trkpt lat="43.77777" lon="1.57382">
        <ele>160</ele>
        <time>2020-06-14T17:05:15Z</time>
      </trkpt>
      <trkpt lat="43.77838" lon="1.57306">
        <ele>155</ele>
        <time>2020-06-14T17:06:21Z</time>
      </trkpt>
      <trkpt lat="43.77915" lon="1.57243">
        <ele>146</ele>
        <time>2020-06-14T17:07:32Z</time>
      </trkpt>
      <trkpt lat="43.78079" lon="1.57096">
        <ele>136</ele>
        <time>2020-06-14T17:10:09Z</time>
      </trkpt>
      <trkpt lat="43.78118" lon="1.57058">
        <ele>135</ele>
        <time>2020-06-14T17:10:47Z</time>
      </trkpt>
      <trkpt lat="43.78278" lon="1.57067">
        <ele>131</ele>
        <time>2020-06-14T17:12:55Z</time>
      </trkpt>
      <trkpt lat="43.7831" lon="1.57056">
        <ele>129</ele>
        <time>2020-06-14T17:13:21Z</time>
      </trkpt>
      <trkpt lat="43.78358" lon="1.57">
        <ele>127</ele>
        <time>2020-06-14T17:14:12Z</time>
      </trkpt>
      <trkpt lat="43.78345" lon="1.56998">
        <ele>128</ele>
        <time>2020-06-14T17:14:22Z</time>
      </trkpt>
      <trkpt lat="43.78306" lon="1.5698">
        <ele>130</ele>
        <time>2020-06-14T17:14:55Z</time>
      </trkpt>
      <trkpt lat="43.78283" lon="1.56966">
        <ele>131</ele>
        <time>2020-06-14T17:15:15Z</time>
      </trkpt>
      <trkpt lat="43.78274" lon="1.56952">
        <ele>131</ele>
        <time>2020-06-14T17:15:26Z</time>
      </trkpt>
      <trkpt lat="43.78262" lon="1.56916">
        <ele>132</ele>
        <time>2020-06-14T17:15:49Z</time>
      </trkpt>
      <trkpt lat="43.78254" lon="1.56906">
        <ele>132</ele>
        <time>2020-06-14T17:15:58Z</time>
      </trkpt>
      <trkpt lat="43.78248" lon="1.56901">
        <ele>132</ele>
        <time>2020-06-14T17:16:03Z</time>
      </trkpt>
      <trkpt lat="43.7823" lon="1.56896">
        <ele>133</ele>
        <time>2020-06-14T17:16:18Z</time>
      </trkpt>
      <trkpt lat="43.78221" lon="1.56891">
        <ele>133</ele>
        <time>2020-06-14T17:16:26Z</time>
      </trkpt>
      <trkpt lat="43.78193" lon="1.56858">
        <ele>133</ele>
        <time>2020-06-14T17:16:55Z</time>
      </trkpt>
      <trkpt lat="43.78171" lon="1.56839">
        <ele>133</ele>
        <time>2020-06-14T17:17:16Z</time>
      </trkpt>
      <trkpt lat="43.78155" lon="1.56832">
        <ele>134</ele>
        <time>2020-06-14T17:17:29Z</time>
      </trkpt>
      <trkpt lat="43.78126" lon="1.56803">
        <ele>134</ele>
        <time>2020-06-14T17:17:58Z</time>
      </trkpt>
      <trkpt lat="43.78116" lon="1.56796">
        <ele>135</ele>
        <time>2020-06-14T17:18:07Z</time>
      </trkpt>
      <trkpt lat="43.78051" lon="1.56765">
        <ele>136</ele>
        <time>2020-06-14T17:19:02Z</time>
      </trkpt>
      <trkpt lat="43.78008" lon="1.56762">
        <ele>137</ele>
        <time>2020-06-14T17:19:36Z</time>
      </trkpt>
      <trkpt lat="43.77986" lon="1.5675">
        <ele>137</ele>
        <time>2020-06-14T17:19:55Z</time>
      </trkpt>
      <trkpt lat="43.77981" lon="1.56741">
        <ele>137</ele>
        <time>2020-06-14T17:20:02Z</time>
      </trkpt>
      <trkpt lat="43.77925" lon="1.56716">
        <ele>137</ele>
        <time>2020-06-14T17:20:49Z</time>
      </trkpt>
      <trkpt lat="43.77891" lon="1.56707">
        <ele>137</ele>
        <time>2020-06-14T17:21:17Z</time>
      </trkpt>
      <trkpt lat="43.77871" lon="1.56696">
        <ele>138</ele>
        <time>2020-06-14T17:21:34Z</time>
      </trkpt>
      <trkpt lat="43.77867" lon="1.56691">
        <ele>138</ele>
        <time>2020-06-14T17:21:38Z</time>
      </trkpt>
      <trkpt lat="43.77863" lon="1.5669">
        <ele>138</ele>
        <time>2020-06-14T17:21:41Z</time>
      </trkpt>
      <trkpt lat="43.77855" lon="1.56697">
        <ele>138</ele>
        <time>2020-06-14T17:21:49Z</time>
      </trkpt>
      <trkpt lat="43.7785" lon="1.56696">
        <ele>138</ele>
        <time>2020-06-14T17:21:53Z</time>
      </trkpt>
      <trkpt lat="43.77831" lon="1.56683">
        <ele>138</ele>
        <time>2020-06-14T17:22:10Z</time>
      </trkpt>
      <trkpt lat="43.77801" lon="1.56669">
        <ele>140</ele>
        <time>2020-06-14T17:22:35Z</time>
      </trkpt>
      <trkpt lat="43.77791" lon="1.56668">
        <ele>141</ele>
        <time>2020-06-14T17:22:43Z</time>
      </trkpt>
      <trkpt lat="43.77769" lon="1.56658">
        <ele>142</ele>
        <time>2020-06-14T17:23:02Z</time>
      </trkpt>
      <trkpt lat="43.77727" lon="1.56646">
        <ele>143</ele>
        <time>2020-06-14T17:23:36Z</time>
      </trkpt>
      <trkpt lat="43.77704" lon="1.56636">
        <ele>143</ele>
        <time>2020-06-14T17:23:56Z</time>
      </trkpt>
      <trkpt lat="43.77664" lon="1.56625">
        <ele>143</ele>
        <time>2020-06-14T17:24:28Z</time>
      </trkpt>
      <trkpt lat="43.77641" lon="1.56624">
        <ele>144</ele>
        <time>2020-06-14T17:24:47Z</time>
      </trkpt>
      <trkpt lat="43.77602" lon="1.56616">
        <ele>146</ele>
        <time>2020-06-14T17:25:18Z</time>
      </trkpt>
      <trkpt lat="43.77568" lon="1.56602">
        <ele>147</ele>
        <time>2020-06-14T17:25:47Z</time>
      </trkpt>
      <trkpt lat="43.77545" lon="1.56596">
        <ele>149</ele>
        <time>2020-06-14T17:26:05Z</time>
      </trkpt>
      <trkpt lat="43.77517" lon="1.56579">
        <ele>150</ele>
        <time>2020-06-14T17:26:30Z</time>
      </trkpt>
      <trkpt lat="43.77514" lon="1.56579">
        <ele>151</ele>
        <time>2020-06-14T17:26:32Z</time>
      </trkpt>
      <trkpt lat="43.77509" lon="1.56585">
        <ele>151</ele>
        <time>2020-06-14T17:26:38Z</time>
      </trkpt>
      <trkpt lat="43.77503" lon="1.56603">
        <ele>153</ele>
        <time>2020-06-14T17:26:49Z</time>
      </trkpt>
      <trkpt lat="43.77498" lon="1.56606">
        <ele>153</ele>
        <time>2020-06-14T17:26:53Z</time>
      </trkpt>
      <trkpt lat="43.77484" lon="1.56604">
        <ele>154</ele>
        <time>2020-06-14T17:27:05Z</time>
      </trkpt>
      <trkpt lat="43.77467" lon="1.56596">
        <ele>154</ele>
        <time>2020-06-14T17:27:19Z</time>
      </trkpt>
      <trkpt lat="43.77436" lon="1.56569">
        <ele>154</ele>
        <time>2020-06-14T17:27:48Z</time>
      </trkpt>
      <trkpt lat="43.77413" lon="1.56557">
        <ele>155</ele>
        <time>2020-06-14T17:28:08Z</time>
      </trkpt>
      <trkpt lat="43.77338" lon="1.56546">
        <ele>159</ele>
        <time>2020-06-14T17:29:08Z</time>
      </trkpt>
      <trkpt lat="43.77242" lon="1.56593">
        <ele>163</ele>
        <time>2020-06-14T17:30:30Z</time>
      </trkpt>
      <trkpt lat="43.77134" lon="1.56618">
        <ele>165</ele>
        <time>2020-06-14T17:31:58Z</time>
      </trkpt>
      <trkpt lat="43.77069" lon="1.566">
        <ele>165</ele>
        <time>2020-06-14T17:32:51Z</time>
      </trkpt>
      <trkpt lat="43.77052" lon="1.56621">
        <ele>166</ele>
        <time>2020-06-14T17:33:09Z</time>
      </trkpt>
      <trkpt lat="43.77048" lon="1.56622">
        <ele>166</ele>
        <time>2020-06-14T17:33:12Z</time>
      </trkpt>
      <trkpt lat="43.77034" lon="1.56672">
        <ele>167</ele>
        <time>2020-06-14T17:33:43Z</time>
      </trkpt>
      <trkpt lat="43.77042" lon="1.56704">
        <ele>168</ele>
        <time>2020-06-14T17:34:03Z</time>
      </trkpt>
      <trkpt lat="43.77049" lon="1.5685">
        <ele>169</ele>
        <time>2020-06-14T17:35:27Z</time>
      </trkpt>
      <trkpt lat="43.77017" lon="1.5709">
        <ele>170</ele>
        <time>2020-06-14T17:37:48Z</time>
      </trkpt>
      <trkpt lat="43.77022" lon="1.57229">
        <ele>166</ele>
        <time>2020-06-14T17:39:09Z</time>
      </trkpt>
      <trkpt lat="43.77012" lon="1.57295">
        <ele>165</ele>
        <time>2020-06-14T17:39:48Z</time>
      </trkpt>
      <trkpt lat="43.77014" lon="1.57391">
        <ele>164</ele>
        <time>2020-06-14T17:40:43Z</time>
      </trkpt>
      <trkpt lat="43.77012" lon="1.57422">
        <ele>164</ele>
        <time>2020-06-14T17:41:01Z</time>
      </trkpt>
      <trkpt lat="43.77014" lon="1.57452">
        <ele>164</ele>
        <time>2020-06-14T17:41:19Z</time>
      </trkpt>
      <trkpt lat="43.77001" lon="1.57462">
        <ele>165</ele>
        <time>2020-06-14T17:41:31Z</time>
      </trkpt>
      <trkpt lat="43.76922" lon="1.57339">
        <ele>167</ele>
        <time>2020-06-14T17:43:06Z</time>
      </trkpt>
      <trkpt lat="43.7685" lon="1.57262">
        <ele>171</ele>
        <time>2020-06-14T17:44:19Z</time>
      </trkpt>
      <trkpt lat="43.76824" lon="1.57211">
        <ele>172</ele>
        <time>2020-06-14T17:44:55Z</time>
      </trkpt>
      <trkpt lat="43.76785" lon="1.57109">
        <ele>171</ele>
        <time>2020-06-14T17:46:02Z</time>
      </trkpt>
      <trkpt lat="43.76779" lon="1.57021">
        <ele>170</ele>
        <time>2020-06-14T17:46:53Z</time>
      </trkpt>
      <trkpt lat="43.76759" lon="1.5694">
        <ele>167</ele>
        <time>2020-06-14T17:47:42Z</time>
      </trkpt>
      <trkpt lat="43.76743" lon="1.56773">
        <ele>159</ele>
        <time>2020-06-14T17:49:20Z</time>
      </trkpt>
      <trkpt lat="43.76692" lon="1.5664">
        <ele>159</ele>
        <time>2020-06-14T17:50:47Z</time>
      </trkpt>
      <trkpt lat="43.7668" lon="1.56564">
        <ele>162</ele>
        <time>2020-06-14T17:51:32Z</time>
      </trkpt>
      <trkpt lat="43.76613" lon="1.56404">
        <ele>167</ele>
        <time>2020-06-14T17:53:19Z</time>
      </trkpt>
      <trkpt lat="43.76607" lon="1.56412">
        <ele>167</ele>
        <time>2020-06-14T17:53:25Z</time>
      </trkpt>
      <trkpt lat="43.76577" lon="1.56433">
        <ele>166</ele>
        <time>2020-06-14T17:53:52Z</time>
      </trkpt>
      <trkpt lat="43.76545" lon="1.5646">
        <ele>166</ele>
        <time>2020-06-14T17:54:22Z</time>
      </trkpt>
      <trkpt lat="43.76491" lon="1.56489">
        <ele>167</ele>
        <time>2020-06-14T17:55:09Z</time>
      </trkpt>
      <trkpt lat="43.76469" lon="1.56505">
        <ele>167</ele>
        <time>2020-06-14T17:55:29Z</time>
      </trkpt>
      <trkpt lat="43.76437" lon="1.56534">
        <ele>168</ele>
        <time>2020-06-14T17:55:59Z</time>
      </trkpt>
      <trkpt lat="43.76412" lon="1.56547">
        <ele>168</ele>
        <time>2020-06-14T17:56:21Z</time>
      </trkpt>
      <trkpt lat="43.76394" lon="1.56563">
        <ele>169</ele>
        <time>2020-06-14T17:56:38Z</time>
      </trkpt>
      <trkpt lat="43.76371" lon="1.56577">
        <ele>170</ele>
        <time>2020-06-14T17:56:58Z</time>
      </trkpt>
      <trkpt lat="43.76366" lon="1.56581">
        <ele>170</ele>
        <time>2020-06-14T17:57:02Z</time>
      </trkpt>
      <trkpt lat="43.76362" lon="1.56593">
        <ele>170</ele>
        <time>2020-06-14T17:57:10Z</time>
      </trkpt>
      <trkpt lat="43.76351" lon="1.56592">
        <ele>170</ele>
        <time>2020-06-14T17:57:19Z</time>
      </trkpt>
      <trkpt lat="43.76343" lon="1.56594">
        <ele>170</ele>
        <time>2020-06-14T17:57:25Z</time>
      </trkpt>
      <trkpt lat="43.76307" lon="1.56615">
        <ele>171</ele>
        <time>2020-06-14T17:57:57Z</time>
      </trkpt>
      <trkpt lat="43.76262" lon="1.56628">
        <ele>171</ele>
        <time>2020-06-14T17:58:33Z</time>
      </trkpt>
      <trkpt lat="43.76237" lon="1.5665">
        <ele>171</ele>
        <time>2020-06-14T17:58:57Z</time>
      </trkpt>
      <trkpt lat="43.7622" lon="1.56648">
        <ele>172</ele>
        <time>2020-06-14T17:59:11Z</time>
      </trkpt>
      <trkpt lat="43.76218" lon="1.56646">
        <ele>171</ele>
        <time>2020-06-14T17:59:13Z</time>
      </trkpt>
      <trkpt lat="43.76212" lon="1.56617">
        <ele>170</ele>
        <time>2020-06-14T17:59:30Z</time>
      </trkpt>
      <trkpt lat="43.762" lon="1.56631">
        <ele>171</ele>
        <time>2020-06-14T17:59:43Z</time>
      </trkpt>
      <trkpt lat="43.76169" lon="1.56648">
        <ele>172</ele>
        <time>2020-06-14T18:00:09Z</time>
      </trkpt>
      <trkpt lat="43.76145" lon="1.56668">
        <ele>173</ele>
        <time>2020-06-14T18:00:32Z</time>
      </trkpt>
      <trkpt lat="43.7606" lon="1.56705">
        <ele>173</ele>
        <time>2020-06-14T18:01:43Z</time>
      </trkpt>
      <trkpt lat="43.76021" lon="1.56719">
        <ele>173</ele>
        <time>2020-06-14T18:02:16Z</time>
      </trkpt>
      <trkpt lat="43.7599" lon="1.56745">
        <ele>172</ele>
        <time>2020-06-14T18:02:45Z</time>
      </trkpt>
      <trkpt lat="43.7594" lon="1.56774">
        <ele>172</ele>
        <time>2020-06-14T18:03:28Z</time>
      </trkpt>
      <trkpt lat="43.75934" lon="1.56779">
        <ele>172</ele>
        <time>2020-06-14T18:03:34Z</time>
      </trkpt>
      <trkpt lat="43.75925" lon="1.56798">
        <ele>173</ele>
        <time>2020-06-14T18:03:47Z</time>
      </trkpt>
      <trkpt lat="43.75926" lon="1.56822">
        <ele>173</ele>
        <time>2020-06-14T18:04:01Z</time>
      </trkpt>
      <trkpt lat="43.75938" lon="1.56858">
        <ele>174</ele>
        <time>2020-06-14T18:04:24Z</time>
      </trkpt>
      <trkpt lat="43.7597" lon="1.56915">
        <ele>175</ele>
        <time>2020-06-14T18:05:05Z</time>
      </trkpt>
      <trkpt lat="43.75982" lon="1.56954">
        <ele>175</ele>
        <time>2020-06-14T18:05:30Z</time>
      </trkpt>
      <trkpt lat="43.76007" lon="1.56999">
        <ele>175</ele>
        <time>2020-06-14T18:06:03Z</time>
      </trkpt>
      <trkpt lat="43.7602" lon="1.57028">
        <ele>174</ele>
        <time>2020-06-14T18:06:22Z</time>
      </trkpt>
      <trkpt lat="43.7604" lon="1.57084">
        <ele>174</ele>
        <time>2020-06-14T18:06:58Z</time>
      </trkpt>
      <trkpt lat="43.76045" lon="1.57089">
        <ele>173</ele>
        <time>2020-06-14T18:07:03Z</time>
      </trkpt>
      <trkpt lat="43.76057" lon="1.57112">
        <ele>173</ele>
        <time>2020-06-14T18:07:20Z</time>
      </trkpt>
      <trkpt lat="43.76079" lon="1.57163">
        <ele>172</ele>
        <time>2020-06-14T18:07:54Z</time>
      </trkpt>
      <trkpt lat="43.76095" lon="1.57188">
        <ele>171</ele>
        <time>2020-06-14T18:08:14Z</time>
      </trkpt>
      <trkpt lat="43.76125" lon="1.5725">
        <ele>170</ele>
        <time>2020-06-14T18:08:57Z</time>
      </trkpt>
      <trkpt lat="43.76131" lon="1.57267">
        <ele>171</ele>
        <time>2020-06-14T18:09:08Z</time>
      </trkpt>
      <trkpt lat="43.76144" lon="1.57285">
        <ele>171</ele>
        <time>2020-06-14T18:09:22Z</time>
      </trkpt>
      <trkpt lat="43.76149" lon="1.57301">
        <ele>171</ele>
        <time>2020-06-14T18:09:32Z</time>
      </trkpt>
      <trkpt lat="43.76165" lon="1.57331">
        <ele>171</ele>
        <time>2020-06-14T18:09:54Z</time>
      </trkpt>
      <trkpt lat="43.76179" lon="1.57366">
        <ele>170</ele>
        <time>2020-06-14T18:10:17Z</time>
      </trkpt>
      <trkpt lat="43.76202" lon="1.5741">
        <ele>170</ele>
        <time>2020-06-14T18:10:49Z</time>
      </trkpt>
      <trkpt lat="43.76223" lon="1.57463">
        <ele>171</ele>
        <time>2020-06-14T18:11:23Z</time>
      </trkpt>
      <trkpt lat="43.76234" lon="1.57482">
        <ele>172</ele>
        <time>2020-06-14T18:11:38Z</time>
      </trkpt>
      <trkpt lat="43.76248" lon="1.57522">
        <ele>172</ele>
        <time>2020-06-14T18:12:03Z</time>
      </trkpt>
      <trkpt lat="43.76265" lon="1.5756">
        <ele>171</ele>
        <time>2020-06-14T18:12:29Z</time>
      </trkpt>
      <trkpt lat="43.76278" lon="1.57582">
        <ele>171</ele>
        <time>2020-06-14T18:12:46Z</time>
      </trkpt>
      <trkpt lat="43.76288" lon="1.57612">
        <ele>171</ele>
        <time>2020-06-14T18:13:05Z</time>
      </trkpt>
      <trkpt lat="43.76296" lon="1.57626">
        <ele>171</ele>
        <time>2020-06-14T18:13:15Z</time>
      </trkpt>
      <trkpt lat="43.76298" lon="1.57634">
        <ele>171</ele>
        <time>2020-06-14T18:13:20Z</time>
      </trkpt>
      <trkpt lat="43.76297" lon="1.57663">
        <ele>171</ele>
        <time>2020-06-14T18:13:37Z</time>
      </trkpt>
      <trkpt lat="43.76285" lon="1.57714">
        <ele>172</ele>
        <time>2020-06-14T18:14:08Z</time>
      </trkpt>
      <trkpt lat="43.76268" lon="1.57765">
        <ele>173</ele>
        <time>2020-06-14T18:14:40Z</time>
      </trkpt>
      <trkpt lat="43.76263" lon="1.5779">
        <ele>174</ele>
        <time>2020-06-14T18:14:55Z</time>
      </trkpt>
      <trkpt lat="43.76255" lon="1.57807">
        <ele>174</ele>
        <time>2020-06-14T18:15:07Z</time>
      </trkpt>
      <trkpt lat="43.76227" lon="1.5783">
        <ele>174</ele>
        <time>2020-06-14T18:15:33Z</time>
      </trkpt>
      <trkpt lat="43.76217" lon="1.57846">
        <ele>174</ele>
        <time>2020-06-14T18:15:45Z</time>
      </trkpt>
      <trkpt lat="43.76214" lon="1.57863">
        <ele>174</ele>
        <time>2020-06-14T18:15:55Z</time>
      </trkpt>
      <trkpt lat="43.76215" lon="1.5789">
        <ele>173</ele>
        <time>2020-06-14T18:16:11Z</time>
      </trkpt>
      <trkpt lat="43.76222" lon="1.5791">
        <ele>173</ele>
        <time>2020-06-14T18:16:24Z</time>
      </trkpt>
      <trkpt lat="43.76232" lon="1.57963">
        <ele>172</ele>
        <time>2020-06-14T18:16:55Z</time>
      </trkpt>
      <trkpt lat="43.76246" lon="1.58009">
        <ele>172</ele>
        <time>2020-06-14T18:17:24Z</time>
      </trkpt>
      <trkpt lat="43.7626" lon="1.58045">
        <ele>171</ele>
        <time>2020-06-14T18:17:48Z</time>
      </trkpt>
      <trkpt lat="43.76263" lon="1.58062">
        <ele>171</ele>
        <time>2020-06-14T18:17:58Z</time>
      </trkpt>
      <trkpt lat="43.76282" lon="1.58099">
        <ele>170</ele>
        <time>2020-06-14T18:18:24Z</time>
      </trkpt>
      <trkpt lat="43.76284" lon="1.58107">
        <ele>170</ele>
        <time>2020-06-14T18:18:29Z</time>
      </trkpt>
    </trkseg>
  </trk>
</gpx>